Time;durP1;ratioP1;P1;durP2;ratioP2;P2;SDS_P1;SDS_P2;PMS_P1;PMS_P2;Temp;Humidity;BMP_temperature;BMP_pressure;BME280_temperature;BME280_humidity;BME280_pressure;Samples;Min_cycle;Max_cycle;Signal;HPM_P1;HPM_P2
2021/01/29 00:01:31;;;;;;;;;;;;;;;1.81;74.53;96606.91;1677787;85;22217;-86
2021/01/29 00:04:19;;;;;;;;;;;;;;;1.89;74.56;96599.52;1679133;85;26990;-87
2021/01/29 00:07:07;;;;;;;;;;;;;;;2.00;74.62;96600.94;1678059;85;26199;-87
2021/01/29 00:09:54;;;;;;;;;;;;;;;2.06;74.69;96596.67;1668088;84;20300;-88
2021/01/29 00:12:41;;;;;;;;;;;;;;;2.05;74.74;96598.05;1672070;85;24921;-88
2021/01/29 00:15:26;;;;;;;;;;;;;;;2.10;74.78;96601.16;1670458;85;22202;-88
2021/01/29 00:18:16;;;;;;;;;;;;;;;2.09;74.82;96605.48;1669996;84;26197;-83
2021/01/29 00:21:05;;;;;;;;;;;;;;;2.05;74.87;96601.47;1671378;85;25639;-88
2021/01/29 00:23:51;;;;;;;;;;;;;;;2.02;74.90;96593.91;1694180;84;20357;-88
2021/01/29 00:26:38;;;;;;;;;;;;;;;1.97;74.94;96603.70;1680577;85;24957;-88
2021/01/29 00:29:11;;;;;;;;;;;;;;;1.94;74.97;96601.80;1680758;85;22235;-89
2021/01/29 00:31:57;;;;;;;;;;;;;;;1.90;75.00;96604.21;1676536;85;26124;-88
2021/01/29 00:34:43;;;;;;;;;;;;;;;1.84;75.01;96609.77;1677681;85;24635;-88
2021/01/29 00:37:29;;;;;;;;;;;;;;;1.78;75.05;96610.16;1678402;85;20563;-88
2021/01/29 00:40:15;;;;;;;;;;;;;;;1.68;75.08;96604.30;1677285;85;25727;-88
2021/01/29 00:43:01;;;;;;;;;;;;;;;1.63;75.11;96609.39;1664650;86;22140;-87
2021/01/29 00:45:46;;;;;;;;;;;;;;;1.56;75.12;96621.83;1669033;84;26422;-88
2021/01/29 00:48:33;;;;;;;;;;;;;;;1.54;75.17;96630.56;1696912;84;24641;-88
2021/01/29 00:51:19;;;;;;;;;;;;;;;1.50;75.19;96622.67;1677480;85;20287;-88
2021/01/29 00:54:04;;;;;;;;;;;;;;;1.50;75.22;96635.09;1695734;84;24908;-88
2021/01/29 00:56:51;;;;;;;;;;;;;;;1.51;75.30;96639.80;1675978;85;22208;-86
2021/01/29 00:59:37;;;;;;;;;;;;;;;1.46;75.34;96632.81;1678301;85;26153;-86
2021/01/29 01:02:22;;;;;;;;;;;;;;;1.41;75.40;96629.24;1675193;85;23998;-85
2021/01/29 01:05:13;;;;;;;;;;;;;;;1.38;75.44;96628.58;1673586;85;20271;-85
2021/01/29 01:08:00;;;;;;;;;;;;;;;1.37;75.49;96639.81;1677305;85;24977;-85
2021/01/29 01:10:46;;;;;;;;;;;;;;;1.36;75.54;96639.47;1677089;85;22076;-85
2021/01/29 01:13:33;;;;;;;;;;;;;;;1.34;75.60;96637.44;1676354;85;26101;-85
2021/01/29 01:16:19;;;;;;;;;;;;;;;1.31;75.66;96642.80;1660516;84;25617;-85
2021/01/29 01:19:05;;;;;;;;;;;;;;;1.26;75.73;96645.17;1674812;84;20279;-85
2021/01/29 01:21:51;;;;;;;;;;;;;;;1.23;75.78;96642.80;1672282;85;24924;-85
2021/01/29 01:24:39;;;;;;;;;;;;;;;1.24;75.81;96639.30;1676574;85;22057;-86
2021/01/29 01:27:26;;;;;;;;;;;;;;;1.23;75.88;96647.11;1671907;85;26152;-86
2021/01/29 01:30:12;;;;;;;;;;;;;;;1.20;75.95;96644.25;1670599;85;24870;-85
2021/01/29 01:32:57;;;;;;;;;;;;;;;1.18;75.98;96651.72;1674979;85;20271;-88
2021/01/29 01:35:44;;;;;;;;;;;;;;;1.17;76.06;96655.22;1672468;85;25982;-86
2021/01/29 01:38:36;;;;;;;;;;;;;;;1.15;76.11;96660.45;1677296;85;22960;-87
2021/01/29 01:41:22;;;;;;;;;;;;;;;1.15;76.17;96659.62;1677429;84;26077;-87
2021/01/29 01:44:08;;;;;;;;;;;;;;;1.14;76.25;96648.52;1676577;85;24631;-87
2021/01/29 01:46:54;;;;;;;;;;;;;;;1.13;76.31;96662.31;1736220;82;20290;-87
2021/01/29 01:49:40;;;;;;;;;;;;;;;1.12;76.37;96650.80;1738826;82;24218;-86
2021/01/29 01:52:26;;;;;;;;;;;;;;;1.12;76.43;96660.65;1737269;82;22220;-87
2021/01/29 01:55:12;;;;;;;;;;;;;;;1.10;76.50;96653.92;1738234;82;27249;-85
2021/01/29 01:58:00;;;;;;;;;;;;;;;1.08;76.55;96654.49;1735518;82;24586;-84
2021/01/29 02:00:46;;;;;;;;;;;;;;;1.06;76.60;96652.46;1661962;86;20477;-88
2021/01/29 02:03:32;;;;;;;;;;;;;;;1.05;76.65;96642.61;1661377;86;25803;-88
2021/01/29 02:06:18;;;;;;;;;;;;;;;1.05;76.71;96652.91;1662242;86;22052;-87
2021/01/29 02:09:06;;;;;;;;;;;;;;;1.07;76.78;96667.00;1661816;86;26308;-87
2021/01/29 02:11:53;;;;;;;;;;;;;;;1.07;76.83;96663.97;1664851;84;25510;-88
2021/01/29 02:14:40;;;;;;;;;;;;;;;1.09;76.89;96655.66;1662206;86;20286;-88
2021/01/29 02:17:25;;;;;;;;;;;;;;;1.11;76.93;96661.56;1662670;86;24945;-84
2021/01/29 02:20:14;;;;;;;;;;;;;;;1.13;77.00;96669.20;1662516;86;23142;-84
2021/01/29 02:23:00;;;;;;;;;;;;;;;1.11;77.06;96666.72;1661660;86;27154;-84
2021/01/29 02:25:46;;;;;;;;;;;;;;;1.11;77.11;96671.04;1659605;86;24904;-84
2021/01/29 02:28:32;;;;;;;;;;;;;;;1.08;77.16;96677.22;1661934;86;20314;-87
2021/01/29 02:31:18;;;;;;;;;;;;;;;1.04;77.20;96681.33;1661726;86;24871;-87
2021/01/29 02:34:08;;;;;;;;;;;;;;;0.99;77.22;96683.36;1661063;86;22197;-86
2021/01/29 02:36:54;;;;;;;;;;;;;;;0.97;77.29;96682.64;1662133;86;26212;-87
2021/01/29 02:39:40;;;;;;;;;;;;;;;0.93;77.32;96689.70;1663149;84;24712;-87
2021/01/29 02:42:25;;;;;;;;;;;;;;;0.89;77.39;96690.81;1661137;85;20302;-88
2021/01/29 02:45:13;;;;;;;;;;;;;;;0.88;77.42;96693.02;1662265;86;25911;-88
2021/01/29 02:47:59;;;;;;;;;;;;;;;0.87;77.45;96696.53;1660564;86;22121;-89
2021/01/29 02:50:45;;;;;;;;;;;;;;;0.87;77.50;96713.27;1662376;85;26219;-88
2021/01/29 02:53:31;;;;;;;;;;;;;;;0.91;77.57;96703.60;1661910;86;24583;-88
2021/01/29 02:56:20;;;;;;;;;;;;;;;0.90;77.60;96701.94;1660726;86;20605;-89
2021/01/29 02:59:06;;;;;;;;;;;;;;;0.87;77.64;96708.12;1660827;84;24876;-89
2021/01/29 03:01:52;;;;;;;;;;;;;;;0.87;77.69;96708.12;1660500;86;21455;-88
2021/01/29 03:04:41;;;;;;;;;;;;;;;0.87;77.73;96716.30;1656772;86;27127;-85
2021/01/29 03:07:27;;;;;;;;;;;;;;;0.88;77.75;96715.35;1660846;86;24424;-85
2021/01/29 03:10:15;;;;;;;;;;;;;;;0.90;77.78;96725.95;1659032;86;20276;-85
2021/01/29 03:13:02;;;;;;;;;;;;;;;0.92;77.81;96734.42;1659096;86;25091;-85
2021/01/29 03:15:51;;;;;;;;;;;;;;;0.89;77.86;96739.73;1658153;86;22170;-85
2021/01/29 03:18:40;;;;;;;;;;;;;;;0.94;77.88;96739.00;1658585;86;26373;-89
2021/01/29 03:21:26;;;;;;;;;;;;;;;0.89;77.88;96726.02;1657902;86;24610;-89
2021/01/29 03:24:12;;;;;;;;;;;;;;;1.00;77.92;96735.23;1659820;86;20289;-89
2021/01/29 03:26:58;;;;;;;;;;;;;;;1.05;77.95;96734.05;1657185;86;24717;-88
2021/01/29 03:29:44;;;;;;;;;;;;;;;1.12;77.98;96729.37;1654586;86;22069;-86
2021/01/29 03:32:31;;;;;;;;;;;;;;;1.20;78.02;96733.63;1657929;86;26952;-86
2021/01/29 03:35:17;;;;;;;;;;;;;;;1.20;78.06;96740.86;1658928;86;24865;-86
2021/01/29 03:38:03;;;;;;;;;;;;;;;1.15;78.07;96739.02;1659439;86;20202;-86
2021/01/29 03:40:50;;;;;;;;;;;;;;;1.11;78.07;96744.45;1657258;86;25206;-86
2021/01/29 03:43:36;;;;;;;;;;;;;;;1.02;78.09;96739.39;1659501;86;22376;-86
2021/01/29 03:46:23;;;;;;;;;;;;;;;1.00;78.07;96736.53;1655635;86;26159;-87
2021/01/29 03:49:09;;;;;;;;;;;;;;;1.00;78.08;96736.07;1658484;86;24723;-87
2021/01/29 03:51:55;;;;;;;;;;;;;;;1.01;78.10;96733.04;1660522;86;20504;-87
2021/01/29 03:54:41;;;;;;;;;;;;;;;1.01;78.10;96736.91;1655889;86;24960;-87
2021/01/29 03:57:27;;;;;;;;;;;;;;;1.03;78.11;96730.75;1663530;86;22069;-87
2021/01/29 04:00:13;;;;;;;;;;;;;;;1.06;78.13;96733.59;1684451;84;25923;-87
2021/01/29 04:02:59;;;;;;;;;;;;;;;1.04;78.13;96745.72;1660702;86;24649;-88
2021/01/29 04:05:45;;;;;;;;;;;;;;;1.03;78.15;96738.94;1662035;86;20408;-87
2021/01/29 04:08:31;;;;;;;;;;;;;;;1.04;78.16;96733.67;1661629;86;24921;-87
2021/01/29 04:11:17;;;;;;;;;;;;;;;1.07;78.16;96728.81;1661359;85;22004;-87
2021/01/29 04:14:03;;;;;;;;;;;;;;;1.07;78.18;96732.22;1661046;84;27153;-87
2021/01/29 04:16:48;;;;;;;;;;;;;;;1.04;78.20;96728.98;1662228;86;24596;-86
2021/01/29 04:19:35;;;;;;;;;;;;;;;1.01;78.19;96732.58;1657484;85;20280;-87
2021/01/29 04:22:21;;;;;;;;;;;;;;;1.04;78.19;96741.86;1662072;86;24917;-87
2021/01/29 04:25:07;;;;;;;;;;;;;;;1.09;78.20;96734.72;1661350;86;22169;-87
2021/01/29 04:27:55;;;;;;;;;;;;;;;1.15;78.22;96720.16;1660985;86;26146;-88
2021/01/29 04:30:41;;;;;;;;;;;;;;;1.24;78.22;96719.17;1659043;86;24574;-88
2021/01/29 04:33:26;;;;;;;;;;;;;;;1.24;78.25;96724.33;1661334;86;20381;-88
2021/01/29 04:36:14;;;;;;;;;;;;;;;1.26;78.28;96728.08;1660774;86;24979;-88
2021/01/29 04:39:01;;;;;;;;;;;;;;;1.25;78.30;96714.36;1661785;86;22048;-87
2021/01/29 04:41:47;;;;;;;;;;;;;;;1.20;78.30;96695.78;1659887;86;27681;-88
2021/01/29 04:44:33;;;;;;;;;;;;;;;1.25;78.31;96701.48;1662941;86;24418;-88
2021/01/29 04:47:19;;;;;;;;;;;;;;;1.32;78.30;96703.23;1662648;86;20568;-88
2021/01/29 04:50:06;;;;;;;;;;;;;;;1.38;78.32;96698.99;1660749;86;25087;-88
2021/01/29 04:52:53;;;;;;;;;;;;;;;1.38;78.34;96704.14;1661947;86;22960;-84
2021/01/29 04:55:39;;;;;;;;;;;;;;;1.40;78.34;96703.61;1661818;86;26049;-84
2021/01/29 04:58:26;;;;;;;;;;;;;;;1.44;78.32;96708.10;1624220;88;24647;-84
2021/01/29 05:01:21;;;;;;;;;;;;;;;1.43;78.36;96716.29;1598368;89;20317;-84
2021/01/29 05:04:02;;;;;;;;;;;;;;;1.42;78.36;96722.84;1611358;87;25371;-84
2021/01/29 05:06:49;;;;;;;;;;;;;;;1.44;78.36;96729.55;1611685;88;23075;-87
2021/01/29 05:09:37;;;;;;;;;;;;;;;1.37;78.36;96718.41;1611550;87;26168;-87
2021/01/29 05:12:25;;;;;;;;;;;;;;;1.19;78.34;96704.91;1611345;87;24543;-86
2021/01/29 05:15:15;;;;;;;;;;;;;;;1.03;78.32;96701.14;1610410;89;20363;-87
2021/01/29 05:18:03;;;;;;;;;;;;;;;0.95;78.29;96698.63;1612695;87;24933;-86
2021/01/29 05:20:48;;;;;;;;;;;;;;;0.88;78.30;96702.02;1611393;89;22234;-86
2021/01/29 05:23:34;;;;;;;;;;;;;;;0.94;78.22;96704.70;1611897;87;26145;-86
2021/01/29 05:26:21;;;;;;;;;;;;;;;1.03;78.24;96716.59;1611208;87;24466;-87
2021/01/29 05:29:09;;;;;;;;;;;;;;;1.10;78.23;96715.74;1611515;89;20296;-86
2021/01/29 05:31:55;;;;;;;;;;;;;;;1.14;78.24;96713.38;1611268;89;24237;-87
2021/01/29 05:34:42;;;;;;;;;;;;;;;1.20;78.25;96707.37;1611491;88;22321;-87
2021/01/29 05:37:27;;;;;;;;;;;;;;;1.30;78.29;96711.53;1611366;89;27055;-87
2021/01/29 05:40:13;;;;;;;;;;;;;;;1.32;78.27;96719.98;1611389;87;24866;-87
2021/01/29 05:43:00;;;;;;;;;;;;;;;1.41;78.30;96723.77;1611344;88;20427;-87
2021/01/29 05:45:46;;;;;;;;;;;;;;;1.44;78.28;96724.85;1611362;89;24965;-87
2021/01/29 05:48:32;;;;;;;;;;;;;;;1.40;78.31;96718.23;1613842;88;22312;-87
2021/01/29 05:51:18;;;;;;;;;;;;;;;1.36;78.30;96706.47;1611329;87;26145;-87
2021/01/29 05:54:09;;;;;;;;;;;;;;;1.25;78.27;96707.91;1612116;87;24698;-87
2021/01/29 05:56:55;;;;;;;;;;;;;;;1.19;78.27;96717.33;1611334;87;20275;-86
2021/01/29 05:59:41;;;;;;;;;;;;;;;1.16;78.24;96728.26;1611662;87;26050;-86
2021/01/29 06:02:27;;;;;;;;;;;;;;;1.17;78.20;96732.04;1611499;87;22928;-85
2021/01/29 06:05:13;;;;;;;;;;;;;;;1.21;78.14;96741.69;1612074;87;26225;-87
2021/01/29 06:07:59;;;;;;;;;;;;;;;1.35;78.10;96734.44;1611273;87;24704;-87
2021/01/29 06:10:45;;;;;;;;;;;;;;;1.44;78.09;96750.62;1611434;87;20276;-87
2021/01/29 06:13:31;;;;;;;;;;;;;;;1.45;78.07;96744.09;1645272;86;24564;-87
2021/01/29 06:16:17;;;;;;;;;;;;;;;1.54;78.08;96745.28;1643884;86;21950;-87
2021/01/29 06:19:03;;;;;;;;;;;;;;;1.54;78.06;96745.28;1611528;87;26212;-84
2021/01/29 06:21:51;;;;;;;;;;;;;;;1.71;78.04;96742.95;1611259;86;25148;-84
2021/01/29 06:24:37;;;;;;;;;;;;;;;1.77;78.01;96742.12;1611354;87;20343;-86
2021/01/29 06:27:22;;;;;;;;;;;;;;;1.84;77.98;96738.25;1610643;87;24874;-86
2021/01/29 06:30:08;;;;;;;;;;;;;;;1.95;77.94;96742.74;1610755;88;24758;-86
2021/01/29 06:32:54;;;;;;;;;;;;;;;2.01;77.92;96742.36;1611187;89;26152;-86
2021/01/29 06:35:40;;;;;;;;;;;;;;;2.02;77.88;96745.28;1610982;88;24740;-87
2021/01/29 06:38:27;;;;;;;;;;;;;;;2.01;77.84;96740.61;1611240;87;20700;-86
2021/01/29 06:41:13;;;;;;;;;;;;;;;2.06;77.83;96734.70;1610154;89;25057;-86
2021/01/29 06:44:00;;;;;;;;;;;;;;;2.08;77.79;96741.86;1613064;88;22979;-87
2021/01/29 06:46:45;;;;;;;;;;;;;;;2.04;77.75;96746.85;1611254;88;27143;-87
2021/01/29 06:49:31;;;;;;;;;;;;;;;1.98;77.71;96753.69;1611268;89;24702;-86
2021/01/29 06:52:17;;;;;;;;;;;;;;;1.98;77.64;96757.55;1611149;88;20267;-86
2021/01/29 06:55:03;;;;;;;;;;;;;;;1.88;77.61;96755.64;1612295;87;25113;-86
2021/01/29 06:57:49;;;;;;;;;;;;;;;1.84;77.56;96747.73;1610274;89;22149;-86
2021/01/29 07:00:35;;;;;;;;;;;;;;;1.86;77.51;96747.98;1615820;86;26564;-87
2021/01/29 07:03:21;;;;;;;;;;;;;;;1.82;77.47;96742.66;1622112;88;24795;-87
2021/01/29 07:06:10;;;;;;;;;;;;;;;1.89;77.40;96737.50;1622066;88;20412;-88
2021/01/29 07:08:56;;;;;;;;;;;;;;;1.92;77.37;96743.75;1622828;87;24998;-89
2021/01/29 07:11:45;;;;;;;;;;;;;;;1.89;77.34;96733.63;1622182;88;22041;-89
2021/01/29 07:14:31;;;;;;;;;;;;;;;1.86;77.32;96727.36;1622078;88;26141;-88
2021/01/29 07:17:19;;;;;;;;;;;;;;;1.82;77.29;96715.59;1625672;86;25588;-88
2021/01/29 07:20:05;;;;;;;;;;;;;;;1.71;77.30;96690.09;1622087;87;20393;-89
2021/01/29 07:22:51;;;;;;;;;;;;;;;1.56;77.27;96669.52;1622705;87;25128;-86
2021/01/29 07:25:39;;;;;;;;;;;;;;;1.56;77.22;96668.23;1622345;88;21568;-86
2021/01/29 07:28:25;;;;;;;;;;;;;;;1.50;77.20;96653.14;1622329;88;26267;-86
2021/01/29 07:31:11;;;;;;;;;;;;;;;1.45;77.18;96655.64;1622827;86;24601;-86
2021/01/29 07:33:58;;;;;;;;;;;;;;;1.41;77.13;96649.03;1622187;87;20283;-87
2021/01/29 07:36:44;;;;;;;;;;;;;;;1.43;77.12;96645.88;1621835;88;26551;-88
2021/01/29 07:39:30;;;;;;;;;;;;;;;1.45;77.10;96623.42;1647635;86;22160;-88
2021/01/29 07:42:16;;;;;;;;;;;;;;;1.42;77.09;96622.34;1622742;88;26221;-86
2021/01/29 07:45:02;;;;;;;;;;;;;;;1.37;77.08;96619.19;1623396;87;24593;-86
2021/01/29 07:47:48;;;;;;;;;;;;;;;1.35;77.07;96614.61;1623453;86;20329;-89
2021/01/29 07:50:35;;;;;;;;;;;;;;;1.34;77.04;96606.52;1621219;88;24914;-88
2021/01/29 07:53:21;;;;;;;;;;;;;;;1.36;77.01;96605.51;1622855;87;22134;-88
2021/01/29 07:56:07;;;;;;;;;;;;;;;1.38;76.98;96602.36;1622549;87;26314;-87
2021/01/29 07:58:48;;;;;;;;;;;;;;;1.43;76.97;96602.89;1622990;88;25621;-87
2021/01/29 08:01:35;;;;;;;;;;;;;;;1.47;76.95;96594.52;1642377;86;20292;-87
2021/01/29 08:04:21;;;;;;;;;;;;;;;1.49;76.95;96596.06;1618361;88;24973;-87
2021/01/29 08:07:14;;;;;;;;;;;;;;;1.53;76.93;96592.82;1616712;88;22142;-85
2021/01/29 08:09:56;;;;;;;;;;;;;;;1.55;76.93;96595.68;1617691;87;26982;-84
2021/01/29 08:12:42;;;;;;;;;;;;;;;1.56;76.91;96593.48;1618442;87;24796;-84
2021/01/29 08:15:31;;;;;;;;;;;;;;;1.68;76.91;96593.99;1618312;88;20285;-84
2021/01/29 08:18:06;;;;;;;;;;;;;;;1.85;76.89;96592.91;1618422;88;25084;-88
2021/01/29 08:20:52;;;;;;;;;;;;;;;1.91;76.87;96589.11;1618576;88;22320;-88
2021/01/29 08:23:38;;;;;;;;;;;;;;;1.90;76.87;96590.03;1616980;88;25355;-85
2021/01/29 08:26:24;;;;;;;;;;;;;;;1.92;76.87;96592.02;1617561;88;23849;-86
2021/01/29 08:29:11;;;;;;;;;;;;;;;1.88;76.82;96588.83;1617823;88;20550;-86
2021/01/29 08:31:57;;;;;;;;;;;;;;;1.87;76.81;96584.59;1617738;88;25752;-85
2021/01/29 08:34:43;;;;;;;;;;;;;;;1.88;76.80;96587.54;1617603;88;22901;-84
2021/01/29 08:37:31;;;;;;;;;;;;;;;2.10;76.75;96591.67;1617206;88;26302;-85
2021/01/29 08:40:16;;;;;;;;;;;;;;;2.32;76.72;96591.54;1618450;88;24544;-89
2021/01/29 08:43:02;;;;;;;;;;;;;;;2.45;76.74;96589.80;1616383;88;20344;-89
2021/01/29 08:45:48;;;;;;;;;;;;;;;2.35;76.68;96589.57;1618754;88;24925;-89
2021/01/29 08:48:35;;;;;;;;;;;;;;;2.29;76.68;96584.02;1618111;88;22335;-88
2021/01/29 08:51:21;;;;;;;;;;;;;;;2.26;76.62;96584.20;1617408;88;26335;-87
2021/01/29 08:54:09;;;;;;;;;;;;;;;2.13;76.59;96582.08;1615079;88;23977;-88
2021/01/29 08:56:55;;;;;;;;;;;;;;;2.13;76.50;96580.30;1618579;87;20328;-88
2021/01/29 08:59:41;;;;;;;;;;;;;;;2.19;76.43;96578.61;1618620;87;24866;-87
2021/01/29 09:02:28;;;;;;;;;;;;;;;2.22;76.36;96577.59;1613401;88;22393;-88
2021/01/29 09:05:15;;;;;;;;;;;;;;;2.45;76.31;96582.06;1611498;88;26412;-88
2021/01/29 09:08:01;;;;;;;;;;;;;;;2.59;76.28;96582.41;1611462;89;25622;-88
2021/01/29 09:10:48;;;;;;;;;;;;;;;2.64;76.25;96589.38;1610621;88;20207;-88
2021/01/29 09:13:35;;;;;;;;;;;;;;;2.70;76.22;96598.83;1610993;88;24917;-88
2021/01/29 09:16:22;;;;;;;;;;;;;;;2.81;76.18;96595.05;1614239;88;22143;-88
2021/01/29 09:19:08;;;;;;;;;;;;;;;2.85;76.12;96597.78;1612150;89;26192;-88
2021/01/29 09:21:54;;;;;;;;;;;;;;;2.83;76.08;96594.50;1613552;87;24715;-87
2021/01/29 09:24:40;;;;;;;;;;;;;;;2.81;76.04;96592.47;1645560;86;20295;-88
2021/01/29 09:27:26;;;;;;;;;;;;;;;2.91;75.99;96593.48;1610535;89;24962;-87
2021/01/29 09:30:12;;;;;;;;;;;;;;;2.94;75.93;96594.59;1611838;88;22290;-87
2021/01/29 09:33:00;;;;;;;;;;;;;;;3.06;75.86;96590.30;1612319;88;26136;-88
2021/01/29 09:35:46;;;;;;;;;;;;;;;2.99;75.83;96583.10;1611314;89;24942;-88
2021/01/29 09:38:33;;;;;;;;;;;;;;;2.92;75.78;96578.81;1612179;88;20541;-89
2021/01/29 09:41:19;;;;;;;;;;;;;;;2.82;75.71;96571.34;1611491;89;25398;-88
2021/01/29 09:44:05;;;;;;;;;;;;;;;2.78;75.66;96556.50;1612301;88;22173;-88
2021/01/29 09:46:52;;;;;;;;;;;;;;;2.70;75.62;96557.97;1611516;87;26141;-88
2021/01/29 09:49:41;;;;;;;;;;;;;;;2.69;75.55;96554.56;1611349;87;24600;-88
2021/01/29 09:52:26;;;;;;;;;;;;;;;2.73;75.48;96544.38;1611272;87;20308;-88
2021/01/29 09:55:12;;;;;;;;;;;;;;;2.77;75.46;96540.67;1612964;88;24920;-89
2021/01/29 09:57:59;;;;;;;;;;;;;;;2.78;75.42;96531.97;1611243;89;22172;-88
2021/01/29 10:00:45;;;;;;;;;;;;;;;2.73;75.39;96525.00;1613423;88;26311;-86
2021/01/29 10:03:32;;;;;;;;;;;;;;;2.65;75.33;96509.70;1609934;89;24654;-86
2021/01/29 10:06:19;;;;;;;;;;;;;;;2.55;75.26;96517.25;1589431;89;33524;-88
2021/01/29 10:09:08;;;;;;;;;;;;;;;2.57;75.20;96517.95;1610750;89;24972;-86
2021/01/29 10:11:53;;;;;;;;;;;;;;;2.63;75.11;96509.80;1610638;87;22173;-86
2021/01/29 10:14:43;;;;;;;;;;;;;;;2.76;75.07;96504.15;1604924;88;25623;-89
2021/01/29 10:17:29;;;;;;;;;;;;;;;2.78;75.03;96497.09;1610801;89;24853;-88
2021/01/29 10:20:16;;;;;;;;;;;;;;;2.79;75.02;96494.05;1611170;87;20374;-88
2021/01/29 10:23:04;;;;;;;;;;;;;;;2.79;74.99;96485.84;1611120;89;25164;-89
2021/01/29 10:25:49;;;;;;;;;;;;;;;2.80;74.94;96483.62;1611003;88;22273;-86
2021/01/29 10:28:38;;;;;;;;;;;;;;;2.79;74.91;96486.30;1611663;86;26458;-85
2021/01/29 10:31:24;;;;;;;;;;;;;;;2.71;74.88;96475.23;1611458;87;24931;-86
2021/01/29 10:34:11;;;;;;;;;;;;;;;2.65;74.83;96470.95;1610986;87;20275;-86
2021/01/29 10:37:03;;;;;;;;;;;;;;;2.63;74.78;96465.06;1611503;87;24994;-89
2021/01/29 10:39:49;;;;;;;;;;;;;;;2.61;74.74;96454.87;1645176;86;22138;-88
2021/01/29 10:42:35;;;;;;;;;;;;;;;2.64;74.69;96461.55;1611187;88;26311;-89
2021/01/29 10:45:21;;;;;;;;;;;;;;;2.69;74.66;96453.84;1612703;87;24929;-88
2021/01/29 10:48:08;;;;;;;;;;;;;;;2.70;74.64;96442.59;1610627;89;20339;-86
2021/01/29 10:50:54;;;;;;;;;;;;;;;2.66;74.60;96445.04;1611324;89;24920;-86
2021/01/29 10:53:41;;;;;;;;;;;;;;;2.71;74.57;96440.84;1611636;89;21659;-86
2021/01/29 10:56:27;;;;;;;;;;;;;;;2.78;74.55;96444.16;1612083;88;26422;-88
2021/01/29 10:59:12;;;;;;;;;;;;;;;2.87;74.54;96439.65;1613375;88;25552;-86
2021/01/29 11:01:59;;;;;;;;;;;;;;;2.95;74.53;96433.45;1610129;86;20323;-88
2021/01/29 11:04:45;;;;;;;;;;;;;;;3.11;74.52;96426.72;1612281;87;25920;-86
2021/01/29 11:07:33;;;;;;;;;;;;;;;3.13;74.52;96423.56;1609230;88;21561;-88
2021/01/29 11:10:20;;;;;;;;;;;;;;;3.12;74.50;96414.62;1611440;87;26984;-85
2021/01/29 11:13:05;;;;;;;;;;;;;;;3.09;74.48;96410.52;1612188;87;24724;-87
2021/01/29 11:15:51;;;;;;;;;;;;;;;3.13;74.45;96405.94;1613701;87;20606;-87
2021/01/29 11:18:38;;;;;;;;;;;;;;;3.17;74.38;96400.89;1611511;88;24920;-87
2021/01/29 11:21:23;;;;;;;;;;;;;;;3.18;74.36;96396.09;1610607;89;22558;-88
2021/01/29 11:24:10;;;;;;;;;;;;;;;3.20;74.33;96391.18;1611346;87;26148;-89
2021/01/29 11:26:57;;;;;;;;;;;;;;;3.18;74.31;96389.63;1610414;87;24630;-88
2021/01/29 11:29:43;;;;;;;;;;;;;;;3.20;74.27;96382.59;1610477;89;20398;-87
2021/01/29 11:32:29;;;;;;;;;;;;;;;3.21;74.23;96382.95;1645402;86;24644;-88
2021/01/29 11:35:16;;;;;;;;;;;;;;;3.23;74.18;96375.90;1611335;88;22391;-89
2021/01/29 11:38:02;;;;;;;;;;;;;;;3.23;74.14;96378.48;1611415;89;26239;-89
2021/01/29 11:40:48;;;;;;;;;;;;;;;3.27;74.12;96380.73;1611400;87;25437;-89
2021/01/29 11:43:34;;;;;;;;;;;;;;;3.25;74.09;96370.16;1611857;88;20307;-89
2021/01/29 11:46:20;;;;;;;;;;;;;;;3.28;74.03;96369.45;1612971;87;24914;-89
2021/01/29 11:49:07;;;;;;;;;;;;;;;3.29;73.99;96364.65;1610483;89;22222;-89
2021/01/29 11:51:53;;;;;;;;;;;;;;;3.29;73.96;96355.60;1612678;87;26220;-86
2021/01/29 11:54:40;;;;;;;;;;;;;;;3.25;73.91;96359.82;1610776;87;25004;-87
2021/01/29 11:57:27;;;;;;;;;;;;;;;3.16;73.87;96354.88;1611346;89;20295;-87
2021/01/29 12:00:19;;;;;;;;;;;;;;;3.11;73.80;96357.44;1610160;89;24882;-87
2021/01/29 12:03:05;;;;;;;;;;;;;;;3.10;73.74;96351.44;1609172;85;22221;-88
2021/01/29 12:05:58;;;;;;;;;;;;;;;3.10;73.69;96346.27;1590476;90;26125;-87
2021/01/29 12:08:42;;;;;;;;;;;;;;;3.12;73.65;96350.84;1591460;87;24701;-89
2021/01/29 12:11:28;;;;;;;;;;;;;;;3.16;73.61;96347.12;1590600;90;20350;-89
2021/01/29 12:14:14;;;;;;;;;;;;;;;3.20;73.60;96335.61;1590603;90;25684;-88
2021/01/29 12:16:59;;;;;;;;;;;;;;;3.26;73.58;96332.58;1590214;90;22345;-88
2021/01/29 12:19:45;;;;;;;;;;;;;;;3.27;73.58;96324.36;1590514;90;26099;-88
2021/01/29 12:22:32;;;;;;;;;;;;;;;3.21;73.57;96318.34;1591007;88;24617;-86
2021/01/29 12:25:18;;;;;;;;;;;;;;;3.21;73.55;96311.89;1590533;89;20287;-87
2021/01/29 12:28:04;;;;;;;;;;;;;;;3.16;73.51;96310.11;1593239;88;25888;-87
2021/01/29 12:30:50;;;;;;;;;;;;;;;3.17;73.47;96306.56;1587576;90;22334;-87
2021/01/29 12:33:37;;;;;;;;;;;;;;;3.22;73.45;96300.58;1589762;90;26238;-89
2021/01/29 12:36:22;;;;;;;;;;;;;;;3.42;73.43;96295.23;1590146;90;24931;-89
2021/01/29 12:39:08;;;;;;;;;;;;;;;3.59;73.44;96279.27;1592462;88;20334;-89
2021/01/29 12:41:53;;;;;;;;;;;;;;;3.73;73.47;96277.72;1591391;88;24994;-87
2021/01/29 12:44:39;;;;;;;;;;;;;;;3.82;73.51;96282.68;1590475;90;22218;-87
2021/01/29 12:47:26;;;;;;;;;;;;;;;3.90;73.57;96269.48;1588939;90;26264;-87
2021/01/29 12:50:12;;;;;;;;;;;;;;;4.00;73.56;96265.70;1590618;88;24769;-87
2021/01/29 12:52:59;;;;;;;;;;;;;;;3.99;73.58;96267.94;1591918;88;20308;-88
2021/01/29 12:55:45;;;;;;;;;;;;;;;4.00;73.58;96260.53;1590780;88;24911;-87
2021/01/29 12:58:30;;;;;;;;;;;;;;;3.93;73.56;96258.09;1590455;89;22139;-87
2021/01/29 13:01:17;;;;;;;;;;;;;;;3.82;73.52;96249.05;1591857;88;26323;-87
2021/01/29 13:04:03;;;;;;;;;;;;;;;3.58;73.50;96245.29;1623526;86;25506;-86
2021/01/29 13:06:49;;;;;;;;;;;;;;;3.40;73.41;96244.10;1628598;88;20318;-86
2021/01/29 13:09:35;;;;;;;;;;;;;;;3.35;73.33;96240.58;1627861;86;25952;-89
2021/01/29 13:12:21;;;;;;;;;;;;;;;3.24;73.29;96242.69;1627960;88;22166;-89
2021/01/29 13:15:08;;;;;;;;;;;;;;;3.20;73.23;96239.98;1628279;88;27221;-89
2021/01/29 13:17:54;;;;;;;;;;;;;;;3.12;73.21;96237.14;1629077;88;24660;-89
2021/01/29 13:20:40;;;;;;;;;;;;;;;3.02;73.19;96234.90;1628228;87;20429;-90
2021/01/29 13:23:27;;;;;;;;;;;;;;;2.89;73.18;96219.98;1626046;88;25329;-89
2021/01/29 13:26:13;;;;;;;;;;;;;;;2.92;73.16;96229.61;1627080;88;22201;-89
2021/01/29 13:28:59;;;;;;;;;;;;;;;2.86;73.17;96224.06;1630167;88;26156;-89
2021/01/29 13:35:26;;;;;;;;;;;;;;;2.86;73.17;96214.56;1628728;88;20209;-86
2021/01/29 13:38:13;;;;;;;;;;;;;;;2.87;73.22;96219.27;1628774;88;25091;-87
2021/01/29 13:40:59;;;;;;;;;;;;;;;2.84;73.24;96215.13;1629463;88;22159;-87
2021/01/29 13:43:45;;;;;;;;;;;;;;;2.85;73.28;96213.37;1630008;88;26360;-87
2021/01/29 13:46:33;;;;;;;;;;;;;;;2.88;73.30;96202.37;1629307;88;24645;-88
2021/01/29 13:49:19;;;;;;;;;;;;;;;2.91;73.36;96204.70;1627282;88;20283;-88
2021/01/29 13:52:06;;;;;;;;;;;;;;;2.93;73.40;96198.97;1630293;88;25287;-88
2021/01/29 13:54:51;;;;;;;;;;;;;;;2.89;73.46;96187.20;1630158;88;23140;-88
2021/01/29 13:57:38;;;;;;;;;;;;;;;2.81;73.49;96183.55;1629610;88;25490;-88
2021/01/29 14:00:25;;;;;;;;;;;;;;;2.77;73.52;96180.39;1626946;88;24640;-88
2021/01/29 14:03:11;;;;;;;;;;;;;;;2.79;73.52;96182.84;1627572;87;20529;-88
2021/01/29 14:06:01;;;;;;;;;;;;;;;2.78;73.56;96178.63;1617372;88;25087;-87
2021/01/29 14:08:47;;;;;;;;;;;;;;;2.68;73.58;96171.19;1617942;88;22169;-87
2021/01/29 14:11:37;;;;;;;;;;;;;;;2.58;73.63;96164.61;1618019;87;26995;-87
2021/01/29 14:14:23;;;;;;;;;;;;;;;2.53;73.64;96160.26;1617686;87;24641;-88
2021/01/29 14:17:09;;;;;;;;;;;;;;;2.45;73.70;96155.68;1617979;88;20722;-88
2021/01/29 14:19:56;;;;;;;;;;;;;;;2.39;73.68;96157.42;1617519;87;24924;-88
2021/01/29 14:22:42;;;;;;;;;;;;;;;2.37;73.74;96150.71;1616604;88;22176;-88
2021/01/29 14:25:29;;;;;;;;;;;;;;;2.31;73.77;96143.42;1617811;88;26131;-87
2021/01/29 14:28:17;;;;;;;;;;;;;;;2.28;73.79;96143.19;1617995;85;25450;-87
2021/01/29 14:31:03;;;;;;;;;;;;;;;2.32;73.84;96136.03;1616729;88;20353;-87
2021/01/29 14:33:52;;;;;;;;;;;;;;;2.29;73.89;96129.33;1617421;87;24878;-87
2021/01/29 14:36:40;;;;;;;;;;;;;;;2.20;73.95;96131.77;1616898;87;22165;-86
2021/01/29 14:39:28;;;;;;;;;;;;;;;2.06;73.99;96124.59;1618983;86;26142;-87
2021/01/29 14:42:14;;;;;;;;;;;;;;;1.93;74.03;96123.83;1617615;87;24886;-87